KGLR/GLR METAR and TAF weather

Enter ICAO airport designator
Station Type Date Time Source
KGLR METAR 2018/12/13 19:53 UTC NOAA

KGLR 131953Z AUTO 19006KT 4SM BR OVC015 00/M02 A3006 RMK AO2 SLP194 T00001017


Station Type Date Time Source
KGLR Decoded METAR 2018/12/13 19:53 UTC NOAA

GAYLORD REGIONAL AIRPORT, MI, United States (KGLR) 45-01N 84-41W 407M
Dec 13, 2018 - 02:53 PM EST / 2018.12.13 1953 UTC
Wind: from the S (190 degrees) at 7 MPH (6 KT):0
Visibility: 4 mile(s):0
Sky conditions: overcast
Weather: mist
Temperature: 32.0 F (0.0 C)
Windchill: 24 F (-4 C):1
Dew Point: 28.9 F (-1.7 C)
Relative Humidity: 88%
Pressure (altimeter): 30.06 in. Hg (1017 hPa)
ob: KGLR 131953Z AUTO 19006KT 4SM BR OVC015 00/M02 A3006 RMK AO2 SLP194 T00001017
cycle: 20

Station Type Date Time Source
KGLR TAF UTC NOAA

Error!


Example: see airport list